sensor_id;sensor_type;location;lat;lon;timestamp;pressure;altitude;pressure_sealevel;temperature;humidity
77454;BME280;66538;53.150;18.160;2024-01-10T00:02:21;103342.88;;;-5.38;91.10
77454;BME280;66538;53.150;18.160;2024-01-10T00:04:47;103339.15;;;-5.35;90.72
77454;BME280;66538;53.150;18.160;2024-01-10T00:07:14;103330.58;;;-5.33;91.37
77454;BME280;66538;53.150;18.160;2024-01-10T00:09:40;103330.68;;;-5.32;91.45
77454;BME280;66538;53.150;18.160;2024-01-10T00:12:07;103333.73;;;-5.31;91.17
77454;BME280;66538;53.150;18.160;2024-01-10T00:14:34;103332.98;;;-5.30;91.86
77454;BME280;66538;53.150;18.160;2024-01-10T00:17:00;103329.30;;;-5.27;91.79
77454;BME280;66538;53.150;18.160;2024-01-10T00:19:27;103322.67;;;-5.26;91.79
77454;BME280;66538;53.150;18.160;2024-01-10T00:21:54;103313.67;;;-5.24;92.38
77454;BME280;66538;53.150;18.160;2024-01-10T00:24:20;103313.68;;;-5.21;92.14
77454;BME280;66538;53.150;18.160;2024-01-10T00:26:47;103311.77;;;-5.19;92.53
77454;BME280;66538;53.150;18.160;2024-01-10T00:29:13;103305.91;;;-5.19;92.20
77454;BME280;66538;53.150;18.160;2024-01-10T00:31:41;103303.55;;;-5.17;92.59
77454;BME280;66538;53.150;18.160;2024-01-10T00:34:07;103301.33;;;-5.16;92.37
77454;BME280;66538;53.150;18.160;2024-01-10T00:36:34;103297.02;;;-5.15;92.99
77454;BME280;66538;53.150;18.160;2024-01-10T00:39:00;103294.39;;;-5.15;93.38
77454;BME280;66538;53.150;18.160;2024-01-10T00:41:27;103290.80;;;-5.14;93.28
77454;BME280;66538;53.150;18.160;2024-01-10T00:43:54;103287.34;;;-5.13;93.24
77454;BME280;66538;53.150;18.160;2024-01-10T00:46:20;103285.73;;;-5.13;93.55
77454;BME280;66538;53.150;18.160;2024-01-10T00:48:47;103283.37;;;-5.11;93.69
77454;BME280;66538;53.150;18.160;2024-01-10T00:51:14;103284.34;;;-5.10;93.65
77454;BME280;66538;53.150;18.160;2024-01-10T00:53:40;103286.69;;;-5.09;93.68
77454;BME280;66538;53.150;18.160;2024-01-10T00:56:09;103289.98;;;-5.08;93.86
77454;BME280;66538;53.150;18.160;2024-01-10T00:58:36;103292.98;;;-5.05;93.65
77454;BME280;66538;53.150;18.160;2024-01-10T01:01:02;103298.43;;;-5.05;94.09
77454;BME280;66538;53.150;18.160;2024-01-10T01:03:29;103299.34;;;-5.03;94.69
77454;BME280;66538;53.150;18.160;2024-01-10T01:05:56;103301.01;;;-5.01;94.36
77454;BME280;66538;53.150;18.160;2024-01-10T01:08:22;103293.95;;;-5.02;94.70
77454;BME280;66538;53.150;18.160;2024-01-10T01:10:49;103295.14;;;-4.98;94.70
77454;BME280;66538;53.150;18.160;2024-01-10T01:13:15;103295.55;;;-4.97;94.63
77454;BME280;66538;53.150;18.160;2024-01-10T01:15:43;103289.32;;;-4.96;94.36
77454;BME280;66538;53.150;18.160;2024-01-10T01:18:09;103295.29;;;-4.93;94.91
77454;BME280;66538;53.150;18.160;2024-01-10T01:20:38;103292.39;;;-4.92;94.80
77454;BME280;66538;53.150;18.160;2024-01-10T01:23:05;103293.55;;;-4.91;94.81
77454;BME280;66538;53.150;18.160;2024-01-10T01:25:32;103294.86;;;-4.89;95.07
77454;BME280;66538;53.150;18.160;2024-01-10T01:27:58;103289.70;;;-4.89;95.35
77454;BME280;66538;53.150;18.160;2024-01-10T01:30:25;103288.58;;;-4.88;95.66
77454;BME280;66538;53.150;18.160;2024-01-10T01:32:52;103287.13;;;-4.87;96.00
77454;BME280;66538;53.150;18.160;2024-01-10T01:35:19;103275.70;;;-4.86;96.41
77454;BME280;66538;53.150;18.160;2024-01-10T01:37:48;103274.55;;;-4.84;96.49
77454;BME280;66538;53.150;18.160;2024-01-10T01:40:15;103283.15;;;-4.83;96.93
77454;BME280;66538;53.150;18.160;2024-01-10T01:42:45;103283.15;;;-4.83;96.58
77454;BME280;66538;53.150;18.160;2024-01-10T01:45:12;103279.55;;;-4.83;96.45
77454;BME280;66538;53.150;18.160;2024-01-10T01:47:40;103274.44;;;-4.83;96.64
77454;BME280;66538;53.150;18.160;2024-01-10T01:50:07;103271.70;;;-4.81;97.03
77454;BME280;66538;53.150;18.160;2024-01-10T01:52:34;103273.74;;;-4.80;96.95
77454;BME280;66538;53.150;18.160;2024-01-10T01:55:05;103269.05;;;-4.79;97.24
77454;BME280;66538;53.150;18.160;2024-01-10T01:57:32;103265.04;;;-4.77;97.58
77454;BME280;66538;53.150;18.160;2024-01-10T01:59:59;103262.44;;;-4.75;97.80
77454;BME280;66538;53.150;18.160;2024-01-10T02:02:27;103252.95;;;-4.73;97.91
77454;BME280;66538;53.150;18.160;2024-01-10T02:04:54;103251.81;;;-4.73;97.59
77454;BME280;66538;53.150;18.160;2024-01-10T02:07:21;103243.41;;;-4.71;97.64
77454;BME280;66538;53.150;18.160;2024-01-10T02:09:48;103241.32;;;-4.69;97.97
77454;BME280;66538;53.150;18.160;2024-01-10T02:12:15;103240.59;;;-4.67;98.20
77454;BME280;66538;53.150;18.160;2024-01-10T02:14:41;103238.45;;;-4.66;98.14
77454;BME280;66538;53.150;18.160;2024-01-10T02:17:09;103236.56;;;-4.64;98.33
77454;BME280;66538;53.150;18.160;2024-01-10T02:19:35;103238.70;;;-4.62;98.46
77454;BME280;66538;53.150;18.160;2024-01-10T02:22:02;103238.15;;;-4.60;98.28
77454;BME280;66538;53.150;18.160;2024-01-10T02:24:30;103239.37;;;-4.57;98.22
77454;BME280;66538;53.150;18.160;2024-01-10T02:26:57;103239.56;;;-4.55;98.66
77454;BME280;66538;53.150;18.160;2024-01-10T02:29:24;103239.36;;;-4.52;98.99
77454;BME280;66538;53.150;18.160;2024-01-10T02:31:50;103240.52;;;-4.51;99.00
77454;BME280;66538;53.150;18.160;2024-01-10T02:34:17;103239.02;;;-4.50;98.93
77454;BME280;66538;53.150;18.160;2024-01-10T02:36:43;103241.81;;;-4.47;99.26
77454;BME280;66538;53.150;18.160;2024-01-10T02:39:10;103240.28;;;-4.43;99.50
77454;BME280;66538;53.150;18.160;2024-01-10T02:41:37;103248.52;;;-4.40;99.70
77454;BME280;66538;53.150;18.160;2024-01-10T02:44:04;103249.50;;;-4.39;99.72
77454;BME280;66538;53.150;18.160;2024-01-10T02:46:30;103257.61;;;-4.34;99.63
77454;BME280;66538;53.150;18.160;2024-01-10T02:48:57;103250.53;;;-4.31;99.87
77454;BME280;66538;53.150;18.160;2024-01-10T02:51:26;103245.70;;;-4.30;99.85
77454;BME280;66538;53.150;18.160;2024-01-10T02:53:53;103245.20;;;-4.26;100.00
77454;BME280;66538;53.150;18.160;2024-01-10T02:56:20;103249.20;;;-4.22;100.00
77454;BME280;66538;53.150;18.160;2024-01-10T02:58:46;103250.16;;;-4.21;100.00
77454;BME280;66538;53.150;18.160;2024-01-10T03:01:14;103242.60;;;-4.19;99.96
77454;BME280;66538;53.150;18.160;2024-01-10T03:03:40;103236.17;;;-4.16;100.00
77454;BME280;66538;53.150;18.160;2024-01-10T03:06:07;103232.98;;;-4.14;100.00
77454;BME280;66538;53.150;18.160;2024-01-10T03:08:33;103236.30;;;-4.11;100.00
77454;BME280;66538;53.150;18.160;2024-01-10T03:11:00;103237.41;;;-4.09;100.00
77454;BME280;66538;53.150;18.160;2024-01-10T03:13:27;103230.03;;;-4.07;100.00
77454;BME280;66538;53.150;18.160;2024-01-10T03:15:53;103227.73;;;-4.05;100.00
77454;BME280;66538;53.150;18.160;2024-01-10T03:18:20;103227.73;;;-4.03;100.00
77454;BME280;66538;53.150;18.160;2024-01-10T03:20:46;103223.87;;;-4.01;100.00
77454;BME280;66538;53.150;18.160;2024-01-10T03:23:13;103221.80;;;-3.99;100.00
77454;BME280;66538;53.150;18.160;2024-01-10T03:25:39;103226.39;;;-3.97;100.00
77454;BME280;66538;53.150;18.160;2024-01-10T03:28:06;103225.54;;;-3.95;100.00
77454;BME280;66538;53.150;18.160;2024-01-10T03:30:33;103220.52;;;-3.94;100.00
77454;BME280;66538;53.150;18.160;2024-01-10T03:32:59;103217.79;;;-3.90;100.00
77454;BME280;66538;53.150;18.160;2024-01-10T03:35:26;103212.05;;;-3.89;100.00
77454;BME280;66538;53.150;18.160;2024-01-10T03:37:52;103206.31;;;-3.88;100.00
77454;BME280;66538;53.150;18.160;2024-01-10T03:40:19;103202.96;;;-3.86;100.00
77454;BME280;66538;53.150;18.160;2024-01-10T03:42:46;103200.18;;;-3.84;100.00
77454;BME280;66538;53.150;18.160;2024-01-10T03:45:12;103195.63;;;-3.83;100.00
77454;BME280;66538;53.150;18.160;2024-01-10T03:47:43;103195.44;;;-3.80;100.00
77454;BME280;66538;53.150;18.160;2024-01-10T03:50:10;103199.23;;;-3.79;100.00
77454;BME280;66538;53.150;18.160;2024-01-10T03:52:37;103197.98;;;-3.79;100.00
77454;BME280;66538;53.150;18.160;2024-01-10T03:55:04;103192.25;;;-3.76;100.00
77454;BME280;66538;53.150;18.160;2024-01-10T03:57:30;103188.55;;;-3.74;100.00
77454;BME280;66538;53.150;18.160;2024-01-10T03:59:57;103186.40;;;-3.71;100.00
77454;BME280;66538;53.150;18.160;2024-01-10T04:02:23;103188.81;;;-3.70;100.00
77454;BME280;66538;53.150;18.160;2024-01-10T04:04:50;103190.98;;;-3.68;100.00
77454;BME280;66538;53.150;18.160;2024-01-10T04:07:17;103187.84;;;-3.67;100.00
77454;BME280;66538;53.150;18.160;2024-01-10T04:09:43;103184.05;;;-3.66;100.00
77454;BME280;66538;53.150;18.160;2024-01-10T04:12:10;103183.39;;;-3.64;100.00
77454;BME280;66538;53.150;18.160;2024-01-10T04:14:37;103179.75;;;-3.63;100.00
77454;BME280;66538;53.150;18.160;2024-01-10T04:17:03;103182.08;;;-3.61;100.00
77454;BME280;66538;53.150;18.160;2024-01-10T04:19:31;103185.36;;;-3.60;100.00
77454;BME280;66538;53.150;18.160;2024-01-10T04:21:59;103186.30;;;-3.58;100.00
77454;BME280;66538;53.150;18.160;2024-01-10T04:24:25;103183.00;;;-3.57;100.00
77454;BME280;66538;53.150;18.160;2024-01-10T04:26:52;103181.71;;;-3.56;100.00
77454;BME280;66538;53.150;18.160;2024-01-10T04:29:19;103171.58;;;-3.56;100.00
77454;BME280;66538;53.150;18.160;2024-01-10T04:31:45;103173.06;;;-3.56;100.00
77454;BME280;66538;53.150;18.160;2024-01-10T04:34:12;103170.45;;;-3.57;100.00
77454;BME280;66538;53.150;18.160;2024-01-10T04:36:38;103173.73;;;-3.58;100.00
77454;BME280;66538;53.150;18.160;2024-01-10T04:39:05;103171.44;;;-3.58;100.00
77454;BME280;66538;53.150;18.160;2024-01-10T04:41:32;103167.89;;;-3.60;100.00
77454;BME280;66538;53.150;18.160;2024-01-10T04:43:58;103168.05;;;-3.63;100.00
77454;BME280;66538;53.150;18.160;2024-01-10T04:46:25;103164.86;;;-3.67;100.00
77454;BME280;66538;53.150;18.160;2024-01-10T04:48:51;103168.23;;;-3.67;100.00
77454;BME280;66538;53.150;18.160;2024-01-10T04:51:18;103164.77;;;-3.68;100.00
77454;BME280;66538;53.150;18.160;2024-01-10T04:53:45;103165.90;;;-3.69;100.00
77454;BME280;66538;53.150;18.160;2024-01-10T04:56:11;103163.48;;;-3.70;100.00
77454;BME280;66538;53.150;18.160;2024-01-10T04:58:38;103157.84;;;-3.72;100.00
77454;BME280;66538;53.150;18.160;2024-01-10T05:01:05;103159.25;;;-3.72;100.00
77454;BME280;66538;53.150;18.160;2024-01-10T05:03:32;103165.98;;;-3.74;100.00
77454;BME280;66538;53.150;18.160;2024-01-10T05:05:59;103166.04;;;-3.75;100.00
77454;BME280;66538;53.150;18.160;2024-01-10T05:08:26;103166.34;;;-3.79;100.00
77454;BME280;66538;53.150;18.160;2024-01-10T05:10:52;103166.95;;;-3.83;100.00
77454;BME280;66538;53.150;18.160;2024-01-10T05:13:19;103173.60;;;-3.84;100.00
77454;BME280;66538;53.150;18.160;2024-01-10T05:15:45;103172.02;;;-3.84;100.00
77454;BME280;66538;53.150;18.160;2024-01-10T05:18:12;103167.71;;;-3.85;100.00
77454;BME280;66538;53.150;18.160;2024-01-10T05:20:38;103171.91;;;-3.85;100.00
77454;BME280;66538;53.150;18.160;2024-01-10T05:23:05;103169.48;;;-3.85;100.00
77454;BME280;66538;53.150;18.160;2024-01-10T05:25:32;103173.02;;;-3.86;100.00
77454;BME280;66538;53.150;18.160;2024-01-10T05:27:58;103172.21;;;-3.84;100.00
77454;BME280;66538;53.150;18.160;2024-01-10T05:30:25;103168.23;;;-3.85;100.00
77454;BME280;66538;53.150;18.160;2024-01-10T05:32:52;103168.75;;;-3.85;100.00
77454;BME280;66538;53.150;18.160;2024-01-10T05:35:18;103165.13;;;-3.84;100.00
77454;BME280;66538;53.150;18.160;2024-01-10T05:37:45;103159.48;;;-3.84;100.00
77454;BME280;66538;53.150;18.160;2024-01-10T05:40:12;103156.98;;;-3.84;100.00
77454;BME280;66538;53.150;18.160;2024-01-10T05:42:38;103153.79;;;-3.84;100.00
77454;BME280;66538;53.150;18.160;2024-01-10T05:45:06;103158.66;;;-3.83;100.00
77454;BME280;66538;53.150;18.160;2024-01-10T05:47:33;103159.31;;;-3.82;100.00
77454;BME280;66538;53.150;18.160;2024-01-10T05:49:59;103159.95;;;-3.81;100.00
77454;BME280;66538;53.150;18.160;2024-01-10T05:52:26;103161.57;;;-3.79;100.00
77454;BME280;66538;53.150;18.160;2024-01-10T05:54:53;103159.33;;;-3.78;100.00
77454;BME280;66538;53.150;18.160;2024-01-10T05:57:20;103160.92;;;-3.76;100.00
77454;BME280;66538;53.150;18.160;2024-01-10T05:59:47;103160.84;;;-3.74;100.00
77454;BME280;66538;53.150;18.160;2024-01-10T06:02:14;103163.83;;;-3.72;100.00
77454;BME280;66538;53.150;18.160;2024-01-10T06:04:42;103161.23;;;-3.70;100.00
77454;BME280;66538;53.150;18.160;2024-01-10T06:07:09;103158.84;;;-3.69;100.00
77454;BME280;66538;53.150;18.160;2024-01-10T06:09:36;103153.08;;;-3.68;100.00
77454;BME280;66538;53.150;18.160;2024-01-10T06:12:03;103152.98;;;-3.67;100.00
77454;BME280;66538;53.150;18.160;2024-01-10T06:14:30;103157.06;;;-3.65;100.00
77454;BME280;66538;53.150;18.160;2024-01-10T06:16:58;103161.06;;;-3.64;100.00
77454;BME280;66538;53.150;18.160;2024-01-10T06:19:26;103164.40;;;-3.63;100.00
77454;BME280;66538;53.150;18.160;2024-01-10T06:21:52;103164.27;;;-3.60;100.00
77454;BME280;66538;53.150;18.160;2024-01-10T06:24:19;103162.18;;;-3.58;100.00
77454;BME280;66538;53.150;18.160;2024-01-10T06:26:46;103161.32;;;-3.56;100.00
77454;BME280;66538;53.150;18.160;2024-01-10T06:29:13;103160.33;;;-3.54;100.00
77454;BME280;66538;53.150;18.160;2024-01-10T06:31:39;103156.54;;;-3.53;100.00
77454;BME280;66538;53.150;18.160;2024-01-10T06:34:06;103160.33;;;-3.52;100.00
77454;BME280;66538;53.150;18.160;2024-01-10T06:36:33;103156.30;;;-3.51;100.00
77454;BME280;66538;53.150;18.160;2024-01-10T06:39:00;103158.09;;;-3.48;100.00
77454;BME280;66538;53.150;18.160;2024-01-10T06:41:27;103154.77;;;-3.47;100.00
77454;BME280;66538;53.150;18.160;2024-01-10T06:43:53;103153.75;;;-3.45;100.00
77454;BME280;66538;53.150;18.160;2024-01-10T06:46:21;103156.70;;;-3.44;100.00
77454;BME280;66538;53.150;18.160;2024-01-10T06:48:48;103154.34;;;-3.43;100.00
77454;BME280;66538;53.150;18.160;2024-01-10T06:51:15;103148.68;;;-3.42;100.00
77454;BME280;66538;53.150;18.160;2024-01-10T06:53:42;103151.42;;;-3.40;100.00
77454;BME280;66538;53.150;18.160;2024-01-10T06:56:09;103152.82;;;-3.38;100.00
77454;BME280;66538;53.150;18.160;2024-01-10T06:58:36;103155.72;;;-3.34;100.00
77454;BME280;66538;53.150;18.160;2024-01-10T07:01:03;103154.02;;;-3.33;100.00
77454;BME280;66538;53.150;18.160;2024-01-10T07:03:31;103147.26;;;-3.30;100.00
77454;BME280;66538;53.150;18.160;2024-01-10T07:05:58;103146.48;;;-3.29;100.00
77454;BME280;66538;53.150;18.160;2024-01-10T07:08:25;103144.27;;;-3.26;100.00
77454;BME280;66538;53.150;18.160;2024-01-10T07:10:52;103144.45;;;-3.24;100.00
77454;BME280;66538;53.150;18.160;2024-01-10T07:13:22;103149.58;;;-3.21;100.00
77454;BME280;66538;53.150;18.160;2024-01-10T07:15:49;103152.45;;;-3.20;100.00
77454;BME280;66538;53.150;18.160;2024-01-10T07:18:19;103149.28;;;-3.18;100.00
77454;BME280;66538;53.150;18.160;2024-01-10T07:20:45;103144.48;;;-3.15;100.00
77454;BME280;66538;53.150;18.160;2024-01-10T07:23:12;103141.19;;;-3.14;100.00
77454;BME280;66538;53.150;18.160;2024-01-10T07:25:39;103146.20;;;-3.12;100.00
77454;BME280;66538;53.150;18.160;2024-01-10T07:28:05;103146.36;;;-3.10;100.00
77454;BME280;66538;53.150;18.160;2024-01-10T07:30:32;103149.16;;;-3.08;100.00
77454;BME280;66538;53.150;18.160;2024-01-10T07:32:59;103155.08;;;-3.04;100.00
77454;BME280;66538;53.150;18.160;2024-01-10T07:35:26;103156.83;;;-3.02;100.00
77454;BME280;66538;53.150;18.160;2024-01-10T07:37:54;103158.45;;;-2.98;100.00
77454;BME280;66538;53.150;18.160;2024-01-10T07:40:20;103147.97;;;-2.95;100.00
77454;BME280;66538;53.150;18.160;2024-01-10T07:42:47;103149.06;;;-2.93;100.00
77454;BME280;66538;53.150;18.160;2024-01-10T07:45:13;103149.06;;;-2.91;100.00
77454;BME280;66538;53.150;18.160;2024-01-10T07:47:40;103150.02;;;-2.87;100.00
77454;BME280;66538;53.150;18.160;2024-01-10T07:50:08;103149.23;;;-2.84;100.00
77454;BME280;66538;53.150;18.160;2024-01-10T07:52:36;103153.41;;;-2.81;100.00
77454;BME280;66538;53.150;18.160;2024-01-10T07:55:03;103155.70;;;-2.79;100.00
77454;BME280;66538;53.150;18.160;2024-01-10T07:57:31;103159.40;;;-2.74;100.00
77454;BME280;66538;53.150;18.160;2024-01-10T07:59:58;103158.46;;;-2.71;100.00
77454;BME280;66538;53.150;18.160;2024-01-10T08:02:25;103156.50;;;-2.67;100.00
77454;BME280;66538;53.150;18.160;2024-01-10T08:04:52;103156.01;;;-2.63;100.00
77454;BME280;66538;53.150;18.160;2024-01-10T08:07:19;103158.77;;;-2.60;100.00
77454;BME280;66538;53.150;18.160;2024-01-10T08:09:46;103159.00;;;-2.57;100.00
77454;BME280;66538;53.150;18.160;2024-01-10T08:12:13;103163.79;;;-2.54;100.00
77454;BME280;66538;53.150;18.160;2024-01-10T08:14:40;103164.79;;;-2.51;100.00
77454;BME280;66538;53.150;18.160;2024-01-10T08:17:07;103170.63;;;-2.49;100.00
77454;BME280;66538;53.150;18.160;2024-01-10T08:19:34;103169.90;;;-2.45;100.00
77454;BME280;66538;53.150;18.160;2024-01-10T08:22:02;103167.79;;;-2.43;100.00
77454;BME280;66538;53.150;18.160;2024-01-10T08:24:29;103169.06;;;-2.39;100.00
77454;BME280;66538;53.150;18.160;2024-01-10T08:26:55;103164.35;;;-2.36;100.00
77454;BME280;66538;53.150;18.160;2024-01-10T08:29:22;103159.23;;;-2.34;100.00
77454;BME280;66538;53.150;18.160;2024-01-10T08:31:49;103167.25;;;-2.30;100.00
77454;BME280;66538;53.150;18.160;2024-01-10T08:34:15;103170.21;;;-2.27;100.00
77454;BME280;66538;53.150;18.160;2024-01-10T08:36:42;103170.90;;;-2.23;100.00
77454;BME280;66538;53.150;18.160;2024-01-10T08:39:08;103174.73;;;-2.20;100.00
77454;BME280;66538;53.150;18.160;2024-01-10T08:41:37;103170.41;;;-2.19;100.00
77454;BME280;66538;53.150;18.160;2024-01-10T08:44:12;103175.42;;;-2.15;100.00
77454;BME280;66538;53.150;18.160;2024-01-10T08:46:39;103177.15;;;-2.13;100.00
77454;BME280;66538;53.150;18.160;2024-01-10T08:49:05;103180.88;;;-2.08;100.00
77454;BME280;66538;53.150;18.160;2024-01-10T08:51:32;103182.51;;;-2.05;100.00
77454;BME280;66538;53.150;18.160;2024-01-10T08:53:59;103184.02;;;-2.02;100.00
77454;BME280;66538;53.150;18.160;2024-01-10T08:56:26;103188.17;;;-1.98;100.00
77454;BME280;66538;53.150;18.160;2024-01-10T08:58:53;103192.04;;;-1.96;100.00
77454;BME280;66538;53.150;18.160;2024-01-10T09:01:19;103183.95;;;-1.94;100.00
77454;BME280;66538;53.150;18.160;2024-01-10T09:03:46;103183.89;;;-1.92;100.00
77454;BME280;66538;53.150;18.160;2024-01-10T09:06:13;103186.30;;;-1.89;100.00
77454;BME280;66538;53.150;18.160;2024-01-10T09:08:39;103185.21;;;-1.86;100.00
77454;BME280;66538;53.150;18.160;2024-01-10T09:11:06;103183.20;;;-1.84;100.00
77454;BME280;66538;53.150;18.160;2024-01-10T09:13:33;103179.23;;;-1.83;100.00
77454;BME280;66538;53.150;18.160;2024-01-10T09:16:01;103187.20;;;-1.79;100.00
77454;BME280;66538;53.150;18.160;2024-01-10T09:18:27;103180.81;;;-1.77;100.00
77454;BME280;66538;53.150;18.160;2024-01-10T09:20:54;103173.48;;;-1.74;100.00
77454;BME280;66538;53.150;18.160;2024-01-10T09:23:20;103164.23;;;-1.71;100.00
77454;BME280;66538;53.150;18.160;2024-01-10T09:25:47;103164.16;;;-1.69;100.00
77454;BME280;66538;53.150;18.160;2024-01-10T09:28:14;103158.20;;;-1.67;100.00
77454;BME280;66538;53.150;18.160;2024-01-10T09:30:41;103158.98;;;-1.66;100.00
77454;BME280;66538;53.150;18.160;2024-01-10T09:33:08;103158.65;;;-1.63;100.00
77454;BME280;66538;53.150;18.160;2024-01-10T09:35:34;103154.97;;;-1.61;100.00
77454;BME280;66538;53.150;18.160;2024-01-10T09:38:01;103150.45;;;-1.58;100.00
77454;BME280;66538;53.150;18.160;2024-01-10T09:40:27;103149.13;;;-1.55;100.00
77454;BME280;66538;53.150;18.160;2024-01-10T09:42:55;103142.66;;;-1.52;100.00
77454;BME280;66538;53.150;18.160;2024-01-10T09:45:23;103138.00;;;-1.50;100.00
77454;BME280;66538;53.150;18.160;2024-01-10T09:47:54;103132.00;;;-1.48;100.00
77454;BME280;66538;53.150;18.160;2024-01-10T09:50:22;103124.79;;;-1.45;100.00
77454;BME280;66538;53.150;18.160;2024-01-10T09:52:51;103120.41;;;-1.41;100.00
77454;BME280;66538;53.150;18.160;2024-01-10T09:55:22;103116.23;;;-1.38;100.00
77454;BME280;66538;53.150;18.160;2024-01-10T09:57:49;103119.17;;;-1.35;100.00
77454;BME280;66538;53.150;18.160;2024-01-10T10:00:16;103124.86;;;-1.31;100.00
77454;BME280;66538;53.150;18.160;2024-01-10T10:02:45;103125.52;;;-1.31;100.00
77454;BME280;66538;53.150;18.160;2024-01-10T10:05:14;103124.62;;;-1.29;100.00
77454;BME280;66538;53.150;18.160;2024-01-10T10:07:48;103119.66;;;-1.27;100.00
77454;BME280;66538;53.150;18.160;2024-01-10T10:10:16;103120.35;;;-1.23;100.00
77454;BME280;66538;53.150;18.160;2024-01-10T10:12:44;103127.05;;;-1.16;100.00
77454;BME280;66538;53.150;18.160;2024-01-10T10:15:15;103126.20;;;-1.13;100.00
77454;BME280;66538;53.150;18.160;2024-01-10T10:17:46;103123.71;;;-1.09;100.00
77454;BME280;66538;53.150;18.160;2024-01-10T10:20:27;103126.52;;;-1.06;100.00
77454;BME280;66538;53.150;18.160;2024-01-10T10:25:33;103137.53;;;-1.04;100.00
77454;BME280;66538;53.150;18.160;2024-01-10T10:28:02;103137.66;;;-1.06;100.00
77454;BME280;66538;53.150;18.160;2024-01-10T10:30:31;103134.55;;;-1.05;100.00
77454;BME280;66538;53.150;18.160;2024-01-10T10:32:59;103141.49;;;-1.03;100.00
77454;BME280;66538;53.150;18.160;2024-01-10T10:35:26;103137.84;;;-1.02;100.00
77454;BME280;66538;53.150;18.160;2024-01-10T10:37:52;103137.93;;;-1.03;100.00
77454;BME280;66538;53.150;18.160;2024-01-10T10:40:21;103139.73;;;-1.03;100.00
77454;BME280;66538;53.150;18.160;2024-01-10T10:42:54;103137.89;;;-1.04;100.00
77454;BME280;66538;53.150;18.160;2024-01-10T10:45:21;103128.07;;;-1.04;100.00
77454;BME280;66538;53.150;18.160;2024-01-10T10:48:00;103130.34;;;-1.01;100.00
77454;BME280;66538;53.150;18.160;2024-01-10T10:50:31;103129.39;;;-1.01;100.00
77454;BME280;66538;53.150;18.160;2024-01-10T10:53:00;103127.00;;;-1.02;100.00
77454;BME280;66538;53.150;18.160;2024-01-10T10:55:28;103121.33;;;-1.02;100.00
77454;BME280;66538;53.150;18.160;2024-01-10T10:57:56;103119.17;;;-1.03;100.00
77454;BME280;66538;53.150;18.160;2024-01-10T11:00:24;103124.08;;;-1.03;100.00
77454;BME280;66538;53.150;18.160;2024-01-10T11:02:54;103119.56;;;-1.04;100.00
77454;BME280;66538;53.150;18.160;2024-01-10T11:05:22;103116.10;;;-1.03;100.00
77454;BME280;66538;53.150;18.160;2024-01-10T11:07:49;103120.45;;;-1.04;100.00
77454;BME280;66538;53.150;18.160;2024-01-10T11:10:21;103110.99;;;-1.04;100.00
77454;BME280;66538;53.150;18.160;2024-01-10T11:15:55;103098.21;;;-1.00;100.00
77454;BME280;66538;53.150;18.160;2024-01-10T11:18:38;103092.46;;;-0.99;100.00
77454;BME280;66538;53.150;18.160;2024-01-10T11:23:59;103093.87;;;-1.01;100.00
77454;BME280;66538;53.150;18.160;2024-01-10T11:26:27;103090.48;;;-1.01;100.00
77454;BME280;66538;53.150;18.160;2024-01-10T11:28:56;103092.63;;;-1.03;100.00
77454;BME280;66538;53.150;18.160;2024-01-10T11:31:28;103092.05;;;-1.04;100.00
77454;BME280;66538;53.150;18.160;2024-01-10T11:33:58;103096.95;;;-1.06;100.00
77454;BME280;66538;53.150;18.160;2024-01-10T11:36:27;103102.27;;;-1.05;100.00
77454;BME280;66538;53.150;18.160;2024-01-10T11:38:58;103096.05;;;-1.07;100.00
77454;BME280;66538;53.150;18.160;2024-01-10T11:41:28;103092.36;;;-1.08;100.00
77454;BME280;66538;53.150;18.160;2024-01-10T11:46:38;103089.02;;;-1.12;100.00
77454;BME280;66538;53.150;18.160;2024-01-10T11:49:09;103079.81;;;-1.15;100.00
77454;BME280;66538;53.150;18.160;2024-01-10T11:51:38;103075.91;;;-1.15;100.00
77454;BME280;66538;53.150;18.160;2024-01-10T11:54:05;103074.29;;;-1.16;100.00
77454;BME280;66538;53.150;18.160;2024-01-10T11:56:42;103079.14;;;-1.17;100.00
77454;BME280;66538;53.150;18.160;2024-01-10T11:59:13;103074.84;;;-1.18;100.00
77454;BME280;66538;53.150;18.160;2024-01-10T12:01:43;103073.27;;;-1.19;100.00
77454;BME280;66538;53.150;18.160;2024-01-10T12:04:09;103075.54;;;-1.18;100.00
77454;BME280;66538;53.150;18.160;2024-01-10T12:06:37;103077.64;;;-1.18;100.00
77454;BME280;66538;53.150;18.160;2024-01-10T12:09:04;103070.38;;;-1.18;100.00
77454;BME280;66538;53.150;18.160;2024-01-10T12:11:41;103067.55;;;-1.16;100.00
77454;BME280;66538;53.150;18.160;2024-01-10T12:14:11;103069.05;;;-1.17;100.00
77454;BME280;66538;53.150;18.160;2024-01-10T12:16:37;103071.15;;;-1.19;100.00
77454;BME280;66538;53.150;18.160;2024-01-10T12:19:05;103076.08;;;-1.20;100.00
77454;BME280;66538;53.150;18.160;2024-01-10T12:21:31;103074.23;;;-1.22;100.00
77454;BME280;66538;53.150;18.160;2024-01-10T12:23:58;103071.38;;;-1.23;100.00
77454;BME280;66538;53.150;18.160;2024-01-10T12:26:25;103067.44;;;-1.25;100.00
77454;BME280;66538;53.150;18.160;2024-01-10T12:28:56;103070.58;;;-1.26;100.00
77454;BME280;66538;53.150;18.160;2024-01-10T12:31:23;103071.24;;;-1.26;100.00
77454;BME280;66538;53.150;18.160;2024-01-10T12:33:52;103070.59;;;-1.27;100.00
77454;BME280;66538;53.150;18.160;2024-01-10T12:36:18;103066.73;;;-1.27;100.00
77454;BME280;66538;53.150;18.160;2024-01-10T12:38:46;103067.93;;;-1.29;100.00
77454;BME280;66538;53.150;18.160;2024-01-10T12:41:18;103064.62;;;-1.31;100.00
77454;BME280;66538;53.150;18.160;2024-01-10T12:43:54;103062.48;;;-1.31;100.00
77454;BME280;66538;53.150;18.160;2024-01-10T12:46:22;103061.18;;;-1.34;100.00